createdAt,value
2019-02-18T00:00:52.970Z,10.57
2019-02-18T00:03:23.084Z,10.53
2019-02-18T00:05:52.633Z,9.20
2019-02-18T00:08:20.501Z,9.77
2019-02-18T00:10:48.630Z,10.00
2019-02-18T00:13:16.631Z,10.20
2019-02-18T00:15:44.642Z,9.93
2019-02-18T00:18:12.638Z,10.77
2019-02-18T00:20:40.833Z,9.43
2019-02-18T00:23:08.669Z,9.27
2019-02-18T00:25:36.626Z,10.40
2019-02-18T00:28:04.603Z,10.47
2019-02-18T00:30:32.571Z,10.50
2019-02-18T00:33:00.636Z,9.77
2019-02-18T00:35:28.689Z,10.27
2019-02-18T00:37:56.756Z,10.20
2019-02-18T00:40:24.614Z,9.77
2019-02-18T00:42:52.652Z,10.70
2019-02-18T00:45:20.566Z,9.87
2019-02-18T00:47:48.519Z,9.07
2019-02-18T00:50:16.511Z,9.83
2019-02-18T00:52:44.610Z,10.20
2019-02-18T00:55:12.645Z,9.40
2019-02-18T00:57:40.548Z,10.07
2019-02-18T01:00:10.996Z,10.30
2019-02-18T01:02:39.131Z,8.93
2019-02-18T01:05:07.413Z,9.30
2019-02-18T01:07:36.503Z,9.47
2019-02-18T01:10:05.019Z,9.20
2019-02-18T01:12:32.993Z,9.37
2019-02-18T01:15:00.940Z,9.13
2019-02-18T01:17:28.870Z,9.47
2019-02-18T01:19:56.765Z,9.70
2019-02-18T01:22:24.885Z,9.03
2019-02-18T01:24:52.877Z,8.43
2019-02-18T01:27:20.949Z,8.87
2019-02-18T01:29:48.793Z,8.97
2019-02-18T01:32:16.711Z,9.30
2019-02-18T01:34:44.918Z,10.57
2019-02-18T01:37:13.055Z,9.50
2019-02-18T01:39:40.795Z,9.57
2019-02-18T01:42:08.752Z,10.50
2019-02-18T01:44:36.534Z,9.70
2019-02-18T01:47:04.519Z,10.13
2019-02-18T01:49:32.312Z,9.83
2019-02-18T01:52:00.246Z,10.07
2019-02-18T01:54:28.117Z,9.47
2019-02-18T01:56:56.084Z,9.80
2019-02-18T01:59:24.066Z,9.50
2019-02-18T02:01:52.309Z,9.30
2019-02-18T02:04:20.250Z,8.80
2019-02-18T02:06:48.279Z,9.37
2019-02-18T02:09:16.151Z,8.67
2019-02-18T02:11:44.184Z,8.40
2019-02-18T02:14:12.089Z,8.63
2019-02-18T02:16:40.142Z,9.27
2019-02-18T02:19:08.069Z,8.27
2019-02-18T02:21:36.179Z,9.17
2019-02-18T02:24:04.214Z,9.53
2019-02-18T02:26:32.326Z,10.10
2019-02-18T02:29:00.559Z,8.87
2019-02-18T02:31:28.580Z,8.13
2019-02-18T02:33:56.477Z,8.87
2019-02-18T02:36:24.770Z,9.07
2019-02-18T02:38:52.783Z,8.90
2019-02-18T02:41:20.812Z,9.23
2019-02-18T02:43:48.967Z,9.07
2019-02-18T02:46:18.499Z,9.27
2019-02-18T02:48:46.443Z,9.17
2019-02-18T02:51:14.309Z,8.03
2019-02-18T02:53:42.151Z,9.43
2019-02-18T02:56:09.815Z,8.87
2019-02-18T02:58:37.767Z,9.73
2019-02-18T03:01:06.023Z,9.30
2019-02-18T03:03:33.920Z,9.53
2019-02-18T03:06:01.808Z,10.37
2019-02-18T03:08:29.743Z,9.77
2019-02-18T03:10:57.458Z,9.03
2019-02-18T03:13:25.382Z,8.77
2019-02-18T03:15:53.537Z,10.63
2019-02-18T03:18:21.447Z,10.37
2019-02-18T03:20:49.524Z,10.17
2019-02-18T03:23:17.652Z,9.53
2019-02-18T03:25:47.629Z,9.67
2019-02-18T03:28:37.767Z,10.13
2019-02-18T03:31:09.632Z,9.67
2019-02-18T03:33:41.459Z,9.67
2019-02-18T03:36:09.576Z,9.30
2019-02-18T03:38:37.647Z,9.70
2019-02-18T03:41:05.774Z,9.33
2019-02-18T03:43:33.898Z,9.37
2019-02-18T03:46:01.982Z,9.67
2019-02-18T03:48:30.017Z,9.70
2019-02-18T03:50:57.891Z,9.57
2019-02-18T03:53:25.878Z,10.03
2019-02-18T03:55:53.774Z,10.03
2019-02-18T03:58:21.852Z,10.67
2019-02-18T04:00:49.796Z,10.53
2019-02-18T04:03:17.920Z,10.23
2019-02-18T04:05:45.962Z,10.90
2019-02-18T04:08:13.930Z,10.63
2019-02-18T04:10:42.130Z,10.53
2019-02-18T04:13:10.104Z,9.93
2019-02-18T04:15:38.282Z,10.17
2019-02-18T04:18:06.416Z,10.37
2019-02-18T04:20:34.603Z,10.67
2019-02-18T04:23:02.912Z,9.60
2019-02-18T04:25:31.128Z,9.57
2019-02-18T04:27:59.135Z,10.17
2019-02-18T04:30:27.156Z,9.83
2019-02-18T04:32:56.199Z,10.20
2019-02-18T04:35:24.090Z,10.23
2019-02-18T04:37:52.183Z,9.83
2019-02-18T04:40:20.321Z,10.73
2019-02-18T04:42:48.240Z,10.60
2019-02-18T04:45:16.362Z,10.70
2019-02-18T04:47:44.354Z,11.20
2019-02-18T04:50:12.154Z,9.73
2019-02-18T04:52:39.846Z,10.73
2019-02-18T04:55:07.920Z,10.70
2019-02-18T04:57:36.936Z,10.67
2019-02-18T05:00:05.558Z,10.23
2019-02-18T05:02:33.403Z,10.47
2019-02-18T05:05:01.391Z,10.90
2019-02-18T05:07:29.313Z,10.53
2019-02-18T05:09:57.148Z,10.33
2019-02-18T05:12:25.075Z,10.63
2019-02-18T05:14:53.153Z,9.80
2019-02-18T05:17:21.255Z,10.43
2019-02-18T05:19:49.327Z,10.30
2019-02-18T05:22:17.131Z,10.30
2019-02-18T05:24:44.946Z,10.00
2019-02-18T05:27:12.908Z,9.87
2019-02-18T05:29:40.667Z,11.00
2019-02-18T05:32:08.623Z,12.77
2019-02-18T05:34:36.711Z,10.90
2019-02-18T05:37:04.580Z,10.80
2019-02-18T05:39:32.626Z,9.70
2019-02-18T05:42:00.724Z,10.03
2019-02-18T05:44:28.500Z,9.93
2019-02-18T05:46:56.489Z,10.23
2019-02-18T05:49:24.397Z,9.77
2019-02-18T05:51:52.633Z,9.40
2019-02-18T05:54:20.390Z,9.77
2019-02-18T05:56:48.389Z,9.70
2019-02-18T05:59:16.453Z,8.77
2019-02-18T06:01:44.526Z,9.67
2019-02-18T06:04:12.479Z,10.20
2019-02-18T06:06:40.735Z,9.80
2019-02-18T06:09:08.627Z,10.93
2019-02-18T06:11:36.776Z,11.57
2019-02-18T06:14:04.551Z,11.87
2019-02-18T06:16:32.409Z,10.33
2019-02-18T06:19:00.163Z,10.37
2019-02-18T06:21:28.243Z,9.87
2019-02-18T06:23:56.179Z,10.50
2019-02-18T06:26:24.180Z,10.87
2019-02-18T06:28:51.956Z,8.13
2019-02-18T06:31:20.224Z,9.60
2019-02-18T06:33:48.377Z,10.23
2019-02-18T06:36:16.414Z,10.80
2019-02-18T06:38:44.444Z,10.60
2019-02-18T06:41:12.341Z,10.60
2019-02-18T06:43:41.301Z,10.77
2019-02-18T06:46:31.256Z,11.03
2019-02-18T06:49:17.163Z,10.47
2019-02-18T06:51:45.142Z,10.33
2019-02-18T06:54:13.214Z,10.93
2019-02-18T06:57:19.237Z,11.13
2019-02-18T07:00:09.526Z,9.63
2019-02-18T07:02:46.114Z,10.97
2019-02-18T07:05:51.693Z,11.30
2019-02-18T07:08:37.763Z,10.97
2019-02-18T07:11:15.886Z,10.97
2019-02-18T07:13:44.740Z,11.33
2019-02-18T07:16:12.648Z,11.13
2019-02-18T07:18:40.640Z,11.60
2019-02-18T07:21:08.462Z,12.67
2019-02-18T07:23:36.332Z,12.80
2019-02-18T07:26:04.502Z,14.23
2019-02-18T07:28:32.560Z,13.57
2019-02-18T07:31:01.636Z,21.30
2019-02-18T07:33:29.442Z,19.17
2019-02-18T07:35:57.289Z,17.17
2019-02-18T07:38:25.173Z,16.97
2019-02-18T07:40:53.024Z,16.57
2019-02-18T07:43:22.993Z,16.70
2019-02-18T07:45:50.762Z,17.27
2019-02-18T07:48:18.726Z,16.30
2019-02-18T07:50:46.666Z,16.23
2019-02-18T07:53:14.546Z,18.13
2019-02-18T07:55:42.410Z,14.50
2019-02-18T07:58:10.419Z,13.50
2019-02-18T08:00:38.528Z,13.83
2019-02-18T08:03:06.295Z,12.80
2019-02-18T08:05:34.220Z,12.23
2019-02-18T08:08:02.222Z,12.60
2019-02-18T08:10:30.180Z,13.70
2019-02-18T08:12:58.244Z,14.47
2019-02-18T08:15:26.323Z,14.50
2019-02-18T08:17:54.240Z,14.83
2019-02-18T08:20:22.215Z,12.83
2019-02-18T08:22:50.475Z,12.10
2019-02-18T08:25:18.517Z,10.93
2019-02-18T08:27:46.518Z,10.80
2019-02-18T08:30:14.745Z,11.33
2019-02-18T08:32:42.564Z,10.80
2019-02-18T08:35:10.591Z,14.47
2019-02-18T08:37:38.612Z,11.60
2019-02-18T08:40:06.765Z,11.37
2019-02-18T08:42:34.770Z,11.73
2019-02-18T08:45:02.611Z,11.97
2019-02-18T08:47:30.511Z,11.83
2019-02-18T08:49:58.459Z,12.70
2019-02-18T08:52:26.457Z,10.83
2019-02-18T08:54:56.798Z,11.13
2019-02-18T08:57:24.421Z,10.27
2019-02-18T08:59:52.540Z,11.70
2019-02-18T09:02:20.592Z,11.80
2019-02-18T09:04:48.557Z,10.00
2019-02-18T09:07:16.504Z,10.53
2019-02-18T09:09:45.050Z,11.27
2019-02-18T09:12:13.040Z,9.07
2019-02-18T09:14:41.068Z,10.07
2019-02-18T09:17:10.171Z,10.37
2019-02-18T09:19:38.326Z,10.47
2019-02-18T09:22:24.598Z,9.43
2019-02-18T09:25:01.872Z,8.67
2019-02-18T09:27:33.012Z,9.07
2019-02-18T09:30:01.189Z,9.07
2019-02-18T09:32:29.178Z,8.93
2019-02-18T09:35:02.085Z,9.97
2019-02-18T09:37:26.951Z,8.93
2019-02-18T09:39:54.748Z,9.43
2019-02-18T09:42:22.684Z,8.73
2019-02-18T09:44:50.563Z,8.80
2019-02-18T09:47:18.672Z,8.23
2019-02-18T09:49:46.728Z,8.23
2019-02-18T09:52:14.880Z,8.63
2019-02-18T09:54:42.782Z,8.50
2019-02-18T09:57:10.707Z,8.83
2019-02-18T09:59:38.706Z,9.47
2019-02-18T10:02:06.742Z,9.57
2019-02-18T10:04:34.674Z,10.10
2019-02-18T10:07:02.610Z,8.97
2019-02-18T10:09:30.696Z,8.73
2019-02-18T10:11:58.583Z,8.43
2019-02-18T10:14:26.670Z,8.27
2019-02-18T10:16:54.926Z,8.37
2019-02-18T10:19:23.058Z,8.70
2019-02-18T10:21:51.290Z,8.63
2019-02-18T10:24:21.389Z,9.53
2019-02-18T10:26:49.450Z,8.80
2019-02-18T10:29:17.347Z,8.80
2019-02-18T10:31:45.623Z,9.77
2019-02-18T10:34:14.812Z,9.73
2019-02-18T10:36:43.758Z,9.10
2019-02-18T10:39:11.842Z,9.33
2019-02-18T10:41:39.952Z,9.40
2019-02-18T10:44:07.920Z,9.70
2019-02-18T10:46:35.864Z,9.70
2019-02-18T10:49:03.962Z,9.63
2019-02-18T10:51:32.031Z,9.53
2019-02-18T10:54:00.040Z,9.93
2019-02-18T10:56:28.381Z,9.83
2019-02-18T10:58:56.514Z,10.10
2019-02-18T11:01:24.636Z,9.70
2019-02-18T11:03:54.213Z,9.77
2019-02-18T11:06:22.342Z,10.40
2019-02-18T11:08:50.432Z,10.73
2019-02-18T11:11:18.584Z,11.23
2019-02-18T11:13:46.629Z,10.73
2019-02-18T11:16:14.598Z,10.63
2019-02-18T11:18:42.617Z,9.53
2019-02-18T11:21:11.143Z,10.73
2019-02-18T11:23:39.069Z,10.13
2019-02-18T11:26:06.871Z,10.33
2019-02-18T11:28:34.540Z,9.77
2019-02-18T11:31:02.624Z,10.07
2019-02-18T11:33:30.559Z,9.60
2019-02-18T11:35:58.786Z,9.70
2019-02-18T11:38:26.792Z,10.00
2019-02-18T11:40:54.880Z,9.83
2019-02-18T11:43:22.824Z,10.10
2019-02-18T11:45:50.915Z,8.83
2019-02-18T11:48:18.921Z,9.13
2019-02-18T11:50:46.876Z,9.07
2019-02-18T11:53:14.721Z,8.97
2019-02-18T11:55:42.458Z,9.07
2019-02-18T11:58:10.455Z,8.00
2019-02-18T12:00:38.343Z,7.97
2019-02-18T12:03:11.622Z,8.23
2019-02-18T12:05:36.613Z,6.77
2019-02-18T12:08:04.890Z,6.50
2019-02-18T12:10:32.675Z,6.97
2019-02-18T12:13:00.536Z,6.20
2019-02-18T12:15:28.250Z,6.20
2019-02-18T12:17:56.381Z,5.90
2019-02-18T12:20:24.446Z,6.30
2019-02-18T12:22:52.701Z,6.53
2019-02-18T12:25:21.388Z,5.90
2019-02-18T12:27:49.460Z,6.80
2019-02-18T12:30:17.391Z,6.30
2019-02-18T12:32:45.307Z,5.97
2019-02-18T12:35:13.132Z,5.90
2019-02-18T12:37:41.248Z,5.43
2019-02-18T12:40:09.263Z,6.47
2019-02-18T12:42:37.594Z,5.37
2019-02-18T12:45:06.120Z,5.83
2019-02-18T12:47:34.128Z,11.43
2019-02-18T12:50:02.169Z,5.80
2019-02-18T12:52:30.246Z,5.33
2019-02-18T12:55:00.380Z,5.33
2019-02-18T12:57:28.165Z,5.27
2019-02-18T12:59:56.616Z,5.20
2019-02-18T13:02:24.730Z,4.37
2019-02-18T13:04:52.661Z,4.53
2019-02-18T13:07:20.634Z,4.77
2019-02-18T13:09:48.537Z,4.50
2019-02-18T13:12:16.472Z,4.70
2019-02-18T13:14:44.468Z,4.77
2019-02-18T13:17:12.575Z,4.83
2019-02-18T13:19:41.044Z,4.60
2019-02-18T13:22:09.109Z,3.97
2019-02-18T13:24:36.948Z,4.63
2019-02-18T13:27:04.936Z,4.20
2019-02-18T13:29:32.943Z,4.47
2019-02-18T13:32:00.943Z,4.90
2019-02-18T13:34:28.843Z,4.90
2019-02-18T13:36:57.256Z,4.40
2019-02-18T13:39:25.576Z,4.40
2019-02-18T13:41:53.378Z,4.33
2019-02-18T13:44:21.270Z,4.33
2019-02-18T13:46:49.263Z,4.30
2019-02-18T13:49:17.577Z,4.50
2019-02-18T13:51:45.471Z,4.70
2019-02-18T13:54:13.694Z,4.80
2019-02-18T13:56:41.588Z,4.80
2019-02-18T13:59:09.520Z,4.93
2019-02-18T14:01:37.412Z,5.67
2019-02-18T14:04:05.546Z,4.97
2019-02-18T14:06:33.367Z,5.43
2019-02-18T14:09:01.267Z,5.17
2019-02-18T14:11:31.142Z,5.03
2019-02-18T14:13:59.072Z,5.03
2019-02-18T14:16:27.098Z,6.27
2019-02-18T14:18:55.102Z,5.73
2019-02-18T14:21:23.209Z,5.43
2019-02-18T14:23:51.355Z,5.43
2019-02-18T14:26:19.468Z,5.50
2019-02-18T14:28:47.365Z,5.60
2019-02-18T14:31:15.509Z,5.23
2019-02-18T14:33:43.558Z,5.83
2019-02-18T14:36:11.428Z,5.77
2019-02-18T14:38:39.782Z,5.87
2019-02-18T14:41:08.371Z,6.27
2019-02-18T14:43:36.769Z,5.87
2019-02-18T14:46:04.739Z,5.47
2019-02-18T14:48:32.763Z,5.43
2019-02-18T14:51:00.786Z,6.40
2019-02-18T14:53:28.817Z,6.37
2019-02-18T14:55:56.405Z,5.80
2019-02-18T14:58:24.416Z,5.70
2019-02-18T15:00:52.342Z,6.03
2019-02-18T15:03:20.496Z,5.60
2019-02-18T15:05:48.444Z,6.23
2019-02-18T15:08:16.466Z,6.00
2019-02-18T15:10:44.554Z,5.60
2019-02-18T15:13:12.562Z,5.73
2019-02-18T15:15:40.558Z,5.67
2019-02-18T15:18:08.851Z,5.77
2019-02-18T15:20:36.872Z,5.50
2019-02-18T15:23:04.743Z,5.53
2019-02-18T15:25:32.807Z,5.40
2019-02-18T15:28:00.912Z,4.57
2019-02-18T15:30:28.940Z,5.47
2019-02-18T15:32:57.301Z,5.27
2019-02-18T15:35:25.322Z,5.10
2019-02-18T15:37:53.327Z,5.37
2019-02-18T15:40:21.408Z,5.10
2019-02-18T15:42:49.581Z,6.60
2019-02-18T15:45:17.639Z,8.83
2019-02-18T15:47:45.731Z,8.87
2019-02-18T15:50:14.370Z,10.67
2019-02-18T15:52:42.478Z,10.13
2019-02-18T15:55:10.670Z,8.87
2019-02-18T15:57:38.787Z,10.50
2019-02-18T16:00:09.614Z,10.30
2019-02-18T16:02:37.821Z,8.50
2019-02-18T16:05:05.972Z,9.47
2019-02-18T16:07:34.172Z,8.60
2019-02-18T16:10:02.482Z,8.57
2019-02-18T16:12:30.537Z,7.00
2019-02-18T16:14:58.567Z,7.40
2019-02-18T16:17:26.680Z,7.57
2019-02-18T16:19:54.744Z,7.23
2019-02-18T16:22:23.230Z,7.50
2019-02-18T16:24:51.269Z,7.07
2019-02-18T16:27:19.383Z,6.63
2019-02-18T16:29:47.432Z,7.73
2019-02-18T16:32:15.569Z,6.97
2019-02-18T16:34:43.529Z,6.57
2019-02-18T16:37:11.906Z,5.67
2019-02-18T16:39:39.915Z,6.50
2019-02-18T16:42:08.170Z,6.33
2019-02-18T16:44:36.248Z,6.17
2019-02-18T16:47:05.904Z,6.23
2019-02-18T16:49:34.085Z,5.93
2019-02-18T16:52:02.009Z,7.90
2019-02-18T16:54:29.935Z,7.70
2019-02-18T16:56:57.974Z,7.90
2019-02-18T16:59:25.985Z,6.50
2019-02-18T17:01:55.404Z,6.47
2019-02-18T17:04:23.376Z,6.83
2019-02-18T17:06:51.168Z,7.37
2019-02-18T17:09:19.510Z,6.63
2019-02-18T17:11:47.299Z,7.60
2019-02-18T17:14:15.252Z,8.00
2019-02-18T17:16:43.154Z,7.63
2019-02-18T17:19:11.122Z,8.67
2019-02-18T17:21:39.084Z,9.37
2019-02-18T17:24:06.947Z,8.80
2019-02-18T17:26:35.110Z,8.87
2019-02-18T17:29:03.163Z,9.27
2019-02-18T17:31:30.925Z,10.33
2019-02-18T17:33:58.898Z,9.87
2019-02-18T17:36:26.796Z,10.20
2019-02-18T17:38:54.940Z,10.00
2019-02-18T17:41:22.920Z,10.07
2019-02-18T17:43:51.094Z,9.60
2019-02-18T17:46:19.007Z,11.67
2019-02-18T17:48:47.976Z,11.07
2019-02-18T17:51:16.258Z,11.13
2019-02-18T17:53:45.399Z,10.10
2019-02-18T17:56:13.296Z,10.03
2019-02-18T17:58:41.366Z,9.67
2019-02-18T18:01:09.358Z,11.33
2019-02-18T18:03:37.312Z,12.67
2019-02-18T18:06:06.299Z,15.43
2019-02-18T18:08:34.177Z,14.33
2019-02-18T18:11:02.148Z,13.73
2019-02-18T18:13:30.089Z,13.63
2019-02-18T18:15:59.193Z,13.47
2019-02-18T18:18:27.273Z,13.40
2019-02-18T18:20:55.274Z,14.17
2019-02-18T18:23:23.525Z,15.27
2019-02-18T18:25:51.490Z,15.00
2019-02-18T18:28:19.564Z,14.27
2019-02-18T18:30:47.732Z,14.23
2019-02-18T18:33:16.058Z,13.63
2019-02-18T18:35:44.066Z,13.67
2019-02-18T18:38:11.997Z,14.10
2019-02-18T18:40:40.256Z,14.73
2019-02-18T18:43:08.011Z,17.63
2019-02-18T18:45:36.130Z,18.73
2019-02-18T18:48:04.221Z,20.47
2019-02-18T18:50:33.171Z,22.10
2019-02-18T18:53:01.201Z,19.40
2019-02-18T18:55:28.971Z,18.30
2019-02-18T18:57:56.944Z,18.23
2019-02-18T19:00:25.690Z,18.20
2019-02-18T19:02:53.787Z,15.60
2019-02-18T19:05:22.265Z,15.60
2019-02-18T19:07:51.798Z,15.40
2019-02-18T19:10:20.128Z,15.00
2019-02-18T19:12:48.155Z,13.27
2019-02-18T19:15:16.095Z,13.40
2019-02-18T19:17:44.182Z,13.00
2019-02-18T19:20:12.599Z,11.73
2019-02-18T19:22:40.539Z,10.97
2019-02-18T19:25:09.337Z,11.30
2019-02-18T19:27:37.384Z,10.87
2019-02-18T19:30:06.751Z,11.20
2019-02-18T19:32:34.534Z,10.43
2019-02-18T19:35:02.877Z,11.10
2019-02-18T19:37:30.827Z,11.30
2019-02-18T19:39:59.940Z,11.30
2019-02-18T19:42:27.856Z,13.40
2019-02-18T19:44:55.892Z,12.93
2019-02-18T19:47:23.647Z,13.23
2019-02-18T19:49:51.955Z,14.63
2019-02-18T19:52:20.144Z,14.30
2019-02-18T19:54:49.658Z,15.10
2019-02-18T19:57:17.892Z,14.70
2019-02-18T19:59:46.072Z,15.63
2019-02-18T20:02:14.243Z,16.33
2019-02-18T20:04:42.378Z,15.50
2019-02-18T20:07:10.691Z,15.57
2019-02-18T20:09:38.563Z,14.00
2019-02-18T20:12:06.642Z,14.80
2019-02-18T20:14:34.643Z,13.37
2019-02-18T20:17:03.554Z,13.57
2019-02-18T20:19:31.666Z,13.97
2019-02-18T20:22:00.154Z,14.20
2019-02-18T20:24:28.201Z,14.07
2019-02-18T20:26:56.241Z,13.33
2019-02-18T20:29:24.327Z,13.97
2019-02-18T20:31:53.566Z,14.40
2019-02-18T20:34:21.500Z,12.97
2019-02-18T20:36:49.600Z,14.17
2019-02-18T20:39:17.937Z,14.67
2019-02-18T20:41:45.887Z,13.47
2019-02-18T20:44:16.532Z,14.37
2019-02-18T20:46:44.564Z,14.73
2019-02-18T20:49:12.584Z,14.93
2019-02-18T20:51:40.498Z,15.73
2019-02-18T20:54:08.622Z,16.10
2019-02-18T20:56:36.592Z,16.33
2019-02-18T20:59:04.701Z,16.50
2019-02-18T21:01:32.638Z,16.37
2019-02-18T21:04:00.481Z,16.27
2019-02-18T21:06:28.426Z,16.07
2019-02-18T21:08:56.231Z,17.07
2019-02-18T21:11:24.127Z,15.97
2019-02-18T21:13:52.254Z,16.10
2019-02-18T21:16:19.967Z,16.23
2019-02-18T21:18:48.142Z,16.93
2019-02-18T21:21:16.218Z,15.97
2019-02-18T21:23:44.048Z,16.67
2019-02-18T21:26:12.361Z,17.57
2019-02-18T21:28:40.361Z,16.83
2019-02-18T21:31:08.285Z,16.40
2019-02-18T21:33:36.158Z,16.53
2019-02-18T21:36:04.248Z,16.53
2019-02-18T21:38:32.327Z,16.87
2019-02-18T21:41:00.336Z,16.07
2019-02-18T21:43:28.611Z,16.33
2019-02-18T21:45:56.776Z,16.17
2019-02-18T21:48:24.781Z,16.13
2019-02-18T21:50:52.689Z,16.33
2019-02-18T21:53:20.705Z,16.07
2019-02-18T21:55:48.703Z,16.07
2019-02-18T21:58:16.651Z,16.23
2019-02-18T22:00:44.544Z,14.83
2019-02-18T22:03:12.625Z,16.83
2019-02-18T22:05:40.745Z,14.90
2019-02-18T22:08:08.481Z,15.60
2019-02-18T22:10:36.302Z,16.20
2019-02-18T22:13:04.245Z,15.17
2019-02-18T22:15:32.246Z,15.27
2019-02-18T22:18:00.133Z,15.83
2019-02-18T22:20:27.984Z,14.60
2019-02-18T22:22:56.004Z,15.13
2019-02-18T22:25:24.105Z,15.80
2019-02-18T22:27:52.719Z,16.23
2019-02-18T22:30:20.847Z,15.27
2019-02-18T22:32:48.840Z,15.50
2019-02-18T22:35:17.001Z,15.53
2019-02-18T22:37:44.817Z,14.63
2019-02-18T22:40:13.138Z,15.80
2019-02-18T22:42:41.017Z,14.83
2019-02-18T22:45:09.003Z,14.77
2019-02-18T22:47:36.852Z,14.93
2019-02-18T22:50:04.921Z,14.50
2019-02-18T22:52:33.308Z,15.27
2019-02-18T22:55:01.609Z,16.30
2019-02-18T22:57:29.846Z,15.30
2019-02-18T22:59:57.931Z,15.17
2019-02-18T23:02:25.823Z,15.03
2019-02-18T23:04:53.864Z,14.80
2019-02-18T23:07:21.763Z,14.57
2019-02-18T23:09:50.208Z,14.77
2019-02-18T23:12:18.013Z,13.80
2019-02-18T23:14:50.547Z,14.33
2019-02-18T23:17:15.997Z,15.33
2019-02-18T23:19:43.843Z,14.77
2019-02-18T23:22:11.931Z,15.47
2019-02-18T23:24:39.993Z,14.00
2019-02-18T23:27:09.201Z,14.40
2019-02-18T23:29:37.253Z,15.90
2019-02-18T23:32:05.203Z,14.33
2019-02-18T23:34:33.295Z,15.10
2019-02-18T23:37:01.358Z,15.53
2019-02-18T23:39:29.329Z,14.60
2019-02-18T23:41:57.322Z,16.10
2019-02-18T23:44:25.364Z,15.17
2019-02-18T23:46:53.167Z,14.97
2019-02-18T23:49:21.257Z,15.80
2019-02-18T23:51:49.108Z,15.37
2019-02-18T23:54:17.160Z,15.60
2019-02-18T23:56:45.278Z,15.27
2019-02-18T23:59:13.259Z,15.57
